Time;durP1;ratioP1;P1;durP2;ratioP2;P2;SDS_P1;SDS_P2;PMS_P1;PMS_P2;Temp;Humidity;BMP_temperature;BMP_pressure;BME280_temperature;BME280_humidity;BME280_pressure;Samples;Min_cycle;Max_cycle;Signal;HPM_P1;HPM_P2
2023/01/22 00:01:13;;;;;;;;;;;;;;;-1.36;63.65;92861.69;2071421;69;20055;-72
2023/01/22 00:03:39;;;;;;;;;;;;;;;-1.35;64.20;92860.41;2071487;69;20076;-72
2023/01/22 00:06:04;;;;;;;;;;;;;;;-1.50;64.83;92863.69;2071530;69;20045;-74
2023/01/22 00:08:30;;;;;;;;;;;;;;;-1.34;64.76;92867.41;2071284;69;20608;-74
2023/01/22 00:10:55;;;;;;;;;;;;;;;-1.32;64.57;92864.88;2071437;69;20040;-72
2023/01/22 00:13:22;;;;;;;;;;;;;;;-1.50;65.43;92863.69;2071338;69;20040;-71
2023/01/22 00:15:47;;;;;;;;;;;;;;;-1.83;67.67;92865.75;2071157;69;20060;-71
2023/01/22 00:18:13;;;;;;;;;;;;;;;-1.95;68.15;92866.44;2071427;69;20480;-72
2023/01/22 00:20:39;;;;;;;;;;;;;;;-1.70;67.79;92865.00;2071371;69;20494;-72
2023/01/22 00:23:04;;;;;;;;;;;;;;;-1.34;65.50;92868.16;2071701;69;20064;-75
2023/01/22 00:25:29;;;;;;;;;;;;;;;-1.24;64.91;92867.75;2071599;69;20410;-75
2023/01/22 00:27:55;;;;;;;;;;;;;;;-1.20;64.57;92873.69;2071583;69;20131;-74
2023/01/22 00:30:20;;;;;;;;;;;;;;;-1.14;64.39;92875.09;2071260;69;20045;-74
2023/01/22 00:32:46;;;;;;;;;;;;;;;-1.15;64.85;92873.59;2071440;69;20430;-75
2023/01/22 00:35:12;;;;;;;;;;;;;;;-1.22;65.84;92870.72;2071701;69;20048;-76
2023/01/22 00:37:38;;;;;;;;;;;;;;;-1.25;65.88;92877.31;2068330;69;20048;-72
2023/01/22 00:40:04;;;;;;;;;;;;;;;-1.31;66.31;92875.38;2068145;69;20489;-74
2023/01/22 00:42:31;;;;;;;;;;;;;;;-1.20;65.62;92876.44;2071738;69;20499;-76
2023/01/22 00:44:58;;;;;;;;;;;;;;;-1.49;66.96;92881.00;2068436;69;20051;-73
2023/01/22 00:47:24;;;;;;;;;;;;;;;-1.58;67.95;92877.38;2071772;69;20123;-76
2023/01/22 00:49:49;;;;;;;;;;;;;;;-1.62;68.37;92885.22;2071702;69;20534;-78
2023/01/22 00:52:16;;;;;;;;;;;;;;;-1.42;68.52;92878.38;2071659;69;20411;-78
2023/01/22 00:54:41;;;;;;;;;;;;;;;-1.18;67.33;92885.72;2065267;69;20467;-75
2023/01/22 00:57:07;;;;;;;;;;;;;;;-1.16;66.82;92882.41;2072150;69;20127;-77
2023/01/22 00:59:32;;;;;;;;;;;;;;;-1.30;66.93;92876.88;2072209;69;20422;-76
2023/01/22 01:01:57;;;;;;;;;;;;;;;-1.32;67.24;92873.91;2071852;69;20487;-73
2023/01/22 01:04:25;;;;;;;;;;;;;;;-1.13;66.55;92875.84;2065559;69;20610;-76
2023/01/22 01:06:50;;;;;;;;;;;;;;;-1.10;67.16;92874.75;2072005;69;20055;-72
2023/01/22 01:09:16;;;;;;;;;;;;;;;-1.06;67.22;92881.44;2071801;69;20047;-74
2023/01/22 01:11:41;;;;;;;;;;;;;;;-1.16;68.27;92879.66;2071913;69;20135;-72
2023/01/22 01:14:07;;;;;;;;;;;;;;;-1.20;68.67;92879.22;2068559;69;20052;-78
2023/01/22 01:16:32;;;;;;;;;;;;;;;-1.71;72.18;92877.34;2071826;69;20044;-76
2023/01/22 01:18:59;;;;;;;;;;;;;;;-1.48;71.08;92877.69;2071992;69;20079;-72
2023/01/22 01:21:25;;;;;;;;;;;;;;;-1.63;71.74;92872.69;2072031;69;20519;-74
2023/01/22 01:23:50;;;;;;;;;;;;;;;-1.50;71.33;92877.50;2072140;69;20075;-76
2023/01/22 01:26:16;;;;;;;;;;;;;;;-1.70;72.44;92883.59;2068750;69;20048;-74
2023/01/22 01:28:44;;;;;;;;;;;;;;;-1.99;73.84;92868.75;2068705;69;20064;-73
2023/01/22 01:31:10;;;;;;;;;;;;;;;-1.76;73.98;92869.16;2068682;69;20052;-78
2023/01/22 01:33:36;;;;;;;;;;;;;;;-1.63;73.06;92871.94;2068660;69;20036;-73
2023/01/22 01:36:03;;;;;;;;;;;;;;;-1.51;72.62;92880.75;2068823;69;20067;-74
2023/01/22 01:38:29;;;;;;;;;;;;;;;-1.92;73.94;92876.44;2068638;69;20132;-73
2023/01/22 01:40:55;;;;;;;;;;;;;;;-1.92;74.43;92871.66;2068609;69;20072;-74
2023/01/22 01:43:21;;;;;;;;;;;;;;;-1.70;74.27;92876.06;2068642;69;20040;-72
2023/01/22 01:45:46;;;;;;;;;;;;;;;-1.89;74.77;92873.34;2072105;69;20091;-76
2023/01/22 01:48:21;;;;;;;;;;;;;;;-1.85;74.54;92875.81;2072018;69;20041;-74
2023/01/22 01:50:51;;;;;;;;;;;;;;;-1.97;75.15;92871.72;2071691;69;20045;-73
2023/01/22 01:53:17;;;;;;;;;;;;;;;-1.89;75.29;92869.84;2065852;69;20046;-73
2023/01/22 01:55:42;;;;;;;;;;;;;;;-1.61;73.90;92872.16;2068749;69;20410;-74
2023/01/22 01:58:10;;;;;;;;;;;;;;;-1.61;73.61;92875.66;2072030;69;20151;-72
2023/01/22 02:00:37;;;;;;;;;;;;;;;-1.82;74.35;92870.00;2071986;69;20502;-76
2023/01/22 02:03:03;;;;;;;;;;;;;;;-1.76;74.22;92872.66;2071965;69;20085;-73
2023/01/22 02:05:31;;;;;;;;;;;;;;;-1.45;73.26;92879.41;2072011;69;20144;-76
2023/01/22 02:07:58;;;;;;;;;;;;;;;-1.40;73.05;92884.09;2072249;69;20195;-73
2023/01/22 02:10:23;;;;;;;;;;;;;;;-1.90;74.38;92876.66;2071813;69;20049;-73
2023/01/22 02:12:49;;;;;;;;;;;;;;;-2.06;75.12;92881.16;2068339;69;20106;-72
2023/01/22 02:15:15;;;;;;;;;;;;;;;-1.83;75.30;92868.50;2068572;69;20179;-73
2023/01/22 02:17:40;;;;;;;;;;;;;;;-2.21;75.54;92873.34;2068679;69;20064;-73
2023/01/22 02:20:06;;;;;;;;;;;;;;;-2.07;76.34;92876.91;2065900;69;20055;-70
2023/01/22 02:22:35;;;;;;;;;;;;;;;-1.67;74.70;92866.72;2068707;69;20059;-72
2023/01/22 02:25:00;;;;;;;;;;;;;;;-1.78;75.07;92877.22;2068515;69;20156;-72
2023/01/22 02:27:26;;;;;;;;;;;;;;;-1.77;74.55;92868.41;2068709;69;20047;-70
2023/01/22 02:29:52;;;;;;;;;;;;;;;-1.98;75.95;92876.50;2065775;69;20136;-73
2023/01/22 02:32:17;;;;;;;;;;;;;;;-1.70;75.09;92869.78;2068038;69;20040;-73
2023/01/22 02:34:43;;;;;;;;;;;;;;;-1.95;74.91;92869.94;2068647;69;20109;-76
2023/01/22 02:37:09;;;;;;;;;;;;;;;-1.97;75.81;92872.50;2068653;69;20044;-78
2023/01/22 02:39:34;;;;;;;;;;;;;;;-2.21;76.96;92873.34;2068535;69;20044;-72
2023/01/22 02:42:03;;;;;;;;;;;;;;;-2.06;76.77;92878.41;2068607;69;20053;-73
2023/01/22 02:44:28;;;;;;;;;;;;;;;-2.32;77.29;92881.78;2068568;69;20574;-72
2023/01/22 02:46:54;;;;;;;;;;;;;;;-1.95;76.33;92872.69;2068569;69;20144;-72
2023/01/22 02:49:19;;;;;;;;;;;;;;;-1.98;76.05;92870.25;2071987;69;20140;-74
2023/01/22 02:51:44;;;;;;;;;;;;;;;-2.11;76.84;92877.22;2068564;69;20136;-73
2023/01/22 02:54:10;;;;;;;;;;;;;;;-1.87;75.79;92870.81;2071740;69;20487;-72
2023/01/22 02:56:37;;;;;;;;;;;;;;;-2.09;76.31;92871.91;2068530;69;20110;-72
2023/01/22 02:59:03;;;;;;;;;;;;;;;-2.08;76.57;92872.66;2068541;69;20419;-75
2023/01/22 03:01:29;;;;;;;;;;;;;;;-1.98;76.56;92865.47;2068402;69;20048;-73
2023/01/22 03:03:57;;;;;;;;;;;;;;;-2.24;76.91;92863.38;2068633;69;20041;-75
2023/01/22 03:06:25;;;;;;;;;;;;;;;-2.21;76.94;92867.09;2065665;69;20051;-74
2023/01/22 03:08:59;;;;;;;;;;;;;;;-1.89;76.29;92862.31;2068084;69;20052;-73
2023/01/22 03:11:26;;;;;;;;;;;;;;;-2.00;75.51;92872.78;2068504;69;20063;-76
2023/01/22 03:22:11;;;;;;;;;;;;;;;-2.04;76.06;92878.63;2068151;69;20056;-73
2023/01/22 03:24:37;;;;;;;;;;;;;;;-2.03;76.24;92879.34;2071660;69;20051;-73
2023/01/22 03:27:03;;;;;;;;;;;;;;;-1.93;75.84;92872.16;2068196;69;20426;-72
2023/01/22 03:29:30;;;;;;;;;;;;;;;-1.90;75.52;92876.66;2068371;69;20051;-71
2023/01/22 03:31:55;;;;;;;;;;;;;;;-1.90;75.30;92871.88;2071718;69;20084;-76
2023/01/22 03:34:22;;;;;;;;;;;;;;;-2.16;76.36;92880.03;2068260;69;20059;-72
2023/01/22 03:36:48;;;;;;;;;;;;;;;-1.93;75.25;92878.44;2068289;69;20625;-73
2023/01/22 03:39:14;;;;;;;;;;;;;;;-2.11;75.44;92879.97;2068011;69;20135;-71
2023/01/22 03:41:40;;;;;;;;;;;;;;;-1.88;75.11;92883.13;2068275;69;20411;-70
2023/01/22 03:44:10;;;;;;;;;;;;;;;-1.97;75.31;92891.03;2068261;69;20037;-71
2023/01/22 03:46:38;;;;;;;;;;;;;;;-1.76;74.11;92891.22;2068410;69;20084;-71
2023/01/22 03:49:03;;;;;;;;;;;;;;;-1.92;74.72;92890.97;2068440;69;20041;-73
2023/01/22 03:51:29;;;;;;;;;;;;;;;-1.92;74.72;92885.47;2068463;69;20106;-73
2023/01/22 03:53:56;;;;;;;;;;;;;;;-1.73;74.13;92884.66;2068230;69;20080;-73
2023/01/22 03:56:22;;;;;;;;;;;;;;;-1.72;74.09;92888.91;2068290;69;20550;-73
2023/01/22 03:58:48;;;;;;;;;;;;;;;-1.77;73.90;92879.44;2068153;69;20048;-73
2023/01/22 04:01:15;;;;;;;;;;;;;;;-2.02;76.12;92897.41;2068334;69;20047;-75
2023/01/22 04:03:41;;;;;;;;;;;;;;;-2.11;75.77;92893.00;2068174;69;20048;-73
2023/01/22 04:06:07;;;;;;;;;;;;;;;-1.92;75.72;92899.25;2071659;69;20052;-75
2023/01/22 04:08:34;;;;;;;;;;;;;;;-2.03;75.44;92898.66;2067963;69;20068;-72
2023/01/22 04:11:00;;;;;;;;;;;;;;;-1.77;75.16;92889.75;2068170;69;20060;-74
2023/01/22 04:13:28;;;;;;;;;;;;;;;-1.86;74.43;92897.16;2068027;69;20141;-74
2023/01/22 04:15:54;;;;;;;;;;;;;;;-1.99;75.56;92905.38;2068346;69;20045;-75
2023/01/22 04:18:37;;;;;;;;;;;;;;;-2.10;75.42;92898.00;2071552;69;20052;-74
2023/01/22 04:21:17;;;;;;;;;;;;;;;-2.28;75.86;92898.03;2068398;69;20492;-76
2023/01/22 04:23:50;;;;;;;;;;;;;;;-2.24;77.01;92899.22;2068227;69;20041;-75
2023/01/22 04:26:16;;;;;;;;;;;;;;;-2.18;75.85;92894.38;2068409;69;20136;-75
2023/01/22 04:28:41;;;;;;;;;;;;;;;-2.20;76.39;92899.69;2068302;69;20056;-73
2023/01/22 04:31:08;;;;;;;;;;;;;;;-2.18;76.48;92894.38;2068390;69;20051;-76
2023/01/22 04:33:39;;;;;;;;;;;;;;;-2.14;76.33;92900.31;2068272;69;20040;-74
2023/01/22 04:36:25;;;;;;;;;;;;;;;-2.25;75.75;92894.22;2071439;69;20413;-73
2023/01/22 04:38:51;;;;;;;;;;;;;;;-2.18;76.10;92899.88;2068098;69;20047;-75
2023/01/22 04:41:17;;;;;;;;;;;;;;;-2.13;75.36;92898.31;2068151;69;20044;-74
2023/01/22 04:43:42;;;;;;;;;;;;;;;-2.27;75.96;92900.25;2068333;69;20048;-77
2023/01/22 04:46:08;;;;;;;;;;;;;;;-2.01;75.90;92907.94;2068307;69;20047;-73
2023/01/22 04:48:33;;;;;;;;;;;;;;;-2.26;76.60;92901.75;2068354;69;20080;-74
2023/01/22 04:50:59;;;;;;;;;;;;;;;-1.98;75.66;92906.13;2071644;69;20068;-75
2023/01/22 04:53:27;;;;;;;;;;;;;;;-2.27;76.05;92899.53;2068179;69;20041;-75
2023/01/22 04:55:53;;;;;;;;;;;;;;;-2.28;76.90;92904.28;2068305;69;20044;-73
2023/01/22 04:58:19;;;;;;;;;;;;;;;-2.09;76.41;92912.56;2068311;69;20136;-74
2023/01/22 05:00:45;;;;;;;;;;;;;;;-2.17;76.96;92909.63;2068136;69;20163;-75
2023/01/22 05:03:11;;;;;;;;;;;;;;;-1.86;75.52;92913.69;2068200;69;20037;-73
2023/01/22 05:05:37;;;;;;;;;;;;;;;-1.75;75.03;92918.28;2068132;69;20063;-77
2023/01/22 05:08:03;;;;;;;;;;;;;;;-1.85;75.00;92925.47;2068125;69;20361;-73
2023/01/22 05:10:29;;;;;;;;;;;;;;;-1.88;74.81;92924.53;2068139;69;20388;-76
2023/01/22 05:12:56;;;;;;;;;;;;;;;-2.10;76.09;92927.63;2068248;69;20086;-77
2023/01/22 05:15:23;;;;;;;;;;;;;;;-1.92;75.34;92923.34;2068258;69;20199;-75
2023/01/22 05:17:50;;;;;;;;;;;;;;;-1.68;74.47;92928.00;2068200;69;20131;-79
2023/01/22 05:20:15;;;;;;;;;;;;;;;-1.57;73.78;92925.03;2068206;69;20080;-76
2023/01/22 05:22:42;;;;;;;;;;;;;;;-1.55;73.05;92925.28;2068202;69;20059;-75
2023/01/22 05:25:08;;;;;;;;;;;;;;;-1.54;73.13;92927.50;2068197;69;20048;-73
2023/01/22 05:27:34;;;;;;;;;;;;;;;-1.57;72.92;92923.03;2068405;69;20085;-73
2023/01/22 05:30:05;;;;;;;;;;;;;;;-1.52;72.49;92915.91;2068366;69;20428;-76
2023/01/22 05:32:37;;;;;;;;;;;;;;;-1.70;72.40;92930.53;2071618;69;20048;-77
2023/01/22 05:35:03;;;;;;;;;;;;;;;-1.83;73.58;92931.25;2071752;69;20075;-77
2023/01/22 05:37:30;;;;;;;;;;;;;;;-1.81;74.21;92931.44;2068341;69;20041;-72
2023/01/22 05:39:56;;;;;;;;;;;;;;;-2.24;75.13;92937.84;2068159;69;20060;-73
2023/01/22 05:42:21;;;;;;;;;;;;;;;-1.78;74.48;92941.44;2068932;69;20044;-73
2023/01/22 05:44:48;;;;;;;;;;;;;;;-1.74;74.04;92936.38;2072220;69;20056;-76
2023/01/22 05:47:16;;;;;;;;;;;;;;;-1.86;74.32;92937.81;2068664;69;20100;-77
2023/01/22 05:50:00;;;;;;;;;;;;;;;-1.88;74.17;92943.84;2072134;69;20050;-77
2023/01/22 05:52:25;;;;;;;;;;;;;;;-1.88;74.31;92943.09;2068743;69;20100;-78
2023/01/22 05:54:51;;;;;;;;;;;;;;;-1.68;73.29;92950.81;2068641;69;20087;-76
2023/01/22 05:57:16;;;;;;;;;;;;;;;-1.86;74.17;92952.34;2068802;69;20041;-78
2023/01/22 05:59:42;;;;;;;;;;;;;;;-1.97;74.17;92951.75;2068709;69;20051;-76
2023/01/22 06:02:07;;;;;;;;;;;;;;;-1.97;74.18;92958.03;2068482;69;20040;-76
2023/01/22 06:04:37;;;;;;;;;;;;;;;-1.94;74.34;92962.47;2068491;69;20093;-75
2023/01/22 06:07:11;;;;;;;;;;;;;;;-1.99;74.73;92957.06;2068568;69;20465;-73
2023/01/22 06:09:36;;;;;;;;;;;;;;;-1.90;74.90;92965.69;2068499;69;20051;-78
2023/01/22 06:12:03;;;;;;;;;;;;;;;-1.84;74.29;92971.13;2068557;69;20076;-75
2023/01/22 06:14:29;;;;;;;;;;;;;;;-2.30;75.98;92973.00;2068503;69;20052;-72
2023/01/22 06:16:57;;;;;;;;;;;;;;;-1.93;74.87;92977.03;2068554;69;20136;-72
2023/01/22 06:19:37;;;;;;;;;;;;;;;-1.67;73.95;92979.91;2068730;69;20112;-72
2023/01/22 06:22:03;;;;;;;;;;;;;;;-1.59;73.64;92985.56;2065759;69;20071;-73
2023/01/22 06:24:36;;;;;;;;;;;;;;;-1.49;73.22;92970.09;2071850;69;20069;-74
2023/01/22 06:27:03;;;;;;;;;;;;;;;-1.50;72.56;92974.13;2068541;69;20053;-72
2023/01/22 06:29:37;;;;;;;;;;;;;;;-1.85;73.81;92975.91;2068511;69;20481;-73
2023/01/22 06:32:02;;;;;;;;;;;;;;;-1.61;73.30;92977.06;2068374;69;20087;-74
2023/01/22 06:34:28;;;;;;;;;;;;;;;-1.57;72.81;92980.25;2068238;69;20052;-77
2023/01/22 06:36:55;;;;;;;;;;;;;;;-1.51;72.86;92985.69;2068517;69;20136;-72
2023/01/22 06:39:24;;;;;;;;;;;;;;;-1.46;72.25;92982.88;2068352;69;20047;-76
2023/01/22 06:41:59;;;;;;;;;;;;;;;-1.44;72.13;92983.06;2068342;69;20469;-76
2023/01/22 06:44:24;;;;;;;;;;;;;;;-1.38;72.23;92982.97;2068528;69;20045;-74
2023/01/22 06:46:51;;;;;;;;;;;;;;;-2.13;74.18;92994.84;2068387;69;20122;-76
2023/01/22 06:49:20;;;;;;;;;;;;;;;-2.00;74.04;92997.69;2065691;69;20048;-73
2023/01/22 06:51:45;;;;;;;;;;;;;;;-1.74;72.97;92996.31;2071690;69;20067;-71
2023/01/22 06:54:11;;;;;;;;;;;;;;;-1.51;72.11;93002.25;2068242;69;20132;-71
2023/01/22 06:56:37;;;;;;;;;;;;;;;-1.46;71.81;92999.44;2068408;69;20045;-72
2023/01/22 06:59:03;;;;;;;;;;;;;;;-1.38;71.41;93008.56;2068399;69;20045;-73
2023/01/22 07:01:29;;;;;;;;;;;;;;;-1.46;71.70;93009.75;2067490;69;20071;-72
2023/01/22 07:03:55;;;;;;;;;;;;;;;-1.48;71.99;93012.25;2068455;69;20119;-72
2023/01/22 07:06:20;;;;;;;;;;;;;;;-1.75;72.87;93014.16;2071805;69;20135;-71
2023/01/22 07:08:46;;;;;;;;;;;;;;;-1.55;73.37;93019.16;2071685;69;20138;-72
2023/01/22 07:11:12;;;;;;;;;;;;;;;-1.95;73.42;93020.97;2071511;69;20109;-73
2023/01/22 07:13:37;;;;;;;;;;;;;;;-1.90;73.86;93031.19;2071689;69;20117;-69
2023/01/22 07:16:04;;;;;;;;;;;;;;;-1.90;73.80;93033.94;2068316;69;20482;-76
2023/01/22 07:18:29;;;;;;;;;;;;;;;-1.68;73.75;93021.84;2071247;69;20056;-72
2023/01/22 07:20:59;;;;;;;;;;;;;;;-1.84;73.67;93023.56;2071061;69;20075;-72
2023/01/22 07:23:24;;;;;;;;;;;;;;;-1.99;74.29;93031.56;2071529;69;20424;-71
2023/01/22 07:25:50;;;;;;;;;;;;;;;-2.08;74.27;93033.41;2071459;69;20052;-70
2023/01/22 07:28:15;;;;;;;;;;;;;;;-2.23;75.66;93024.81;2071760;69;20080;-72
2023/01/22 07:30:41;;;;;;;;;;;;;;;-2.14;75.83;93027.22;2071635;69;20119;-72
2023/01/22 07:33:09;;;;;;;;;;;;;;;-2.07;75.74;93034.88;2071731;69;20544;-73
2023/01/22 07:35:34;;;;;;;;;;;;;;;-1.88;74.99;93032.16;2071594;69;20044;-71
2023/01/22 07:38:00;;;;;;;;;;;;;;;-1.86;74.32;93037.16;2071766;69;20074;-71
2023/01/22 07:40:25;;;;;;;;;;;;;;;-2.18;75.56;93040.56;2071583;69;20159;-74
2023/01/22 07:42:51;;;;;;;;;;;;;;;-2.03;75.07;93037.34;2071743;69;20037;-74
2023/01/22 07:45:18;;;;;;;;;;;;;;;-1.95;74.71;93035.50;2071772;69;20044;-74
2023/01/22 07:47:54;;;;;;;;;;;;;;;-1.93;74.46;93038.47;2071828;69;20049;-73
2023/01/22 07:50:24;;;;;;;;;;;;;;;-1.54;74.02;93034.44;2071698;69;20051;-74
2023/01/22 07:52:49;;;;;;;;;;;;;;;-1.74;73.62;93041.25;2071725;69;20092;-72
2023/01/22 07:55:15;;;;;;;;;;;;;;;-1.30;73.58;93039.09;2071615;69;20080;-74
2023/01/22 07:57:40;;;;;;;;;;;;;;;-1.25;72.05;93034.75;2071688;69;20465;-71
2023/01/22 08:00:09;;;;;;;;;;;;;;;-1.09;72.51;93042.06;2072020;69;20518;-76
2023/01/22 08:02:38;;;;;;;;;;;;;;;-1.18;71.99;93045.22;2072294;69;20061;-72
2023/01/22 08:05:04;;;;;;;;;;;;;;;-1.26;72.28;93047.84;2071487;69;20508;-76
2023/01/22 08:07:29;;;;;;;;;;;;;;;-1.63;72.99;93056.91;2071618;69;20033;-73
2023/01/22 08:09:55;;;;;;;;;;;;;;;-1.39;73.30;93051.28;2071443;69;20045;-77
2023/01/22 08:12:20;;;;;;;;;;;;;;;-1.16;72.75;93057.22;2071582;69;20408;-76
2023/01/22 08:14:46;;;;;;;;;;;;;;;-1.15;71.70;93057.94;2071769;69;20527;-77
2023/01/22 08:17:11;;;;;;;;;;;;;;;-1.16;72.23;93064.75;2071811;69;20044;-75
2023/01/22 08:19:36;;;;;;;;;;;;;;;-0.99;71.53;93062.47;2071799;69;20127;-73
2023/01/22 08:22:03;;;;;;;;;;;;;;;-1.36;71.86;93060.53;2071664;69;20229;-74
2023/01/22 08:24:28;;;;;;;;;;;;;;;-1.44;72.84;93068.69;2071560;69;20045;-75
2023/01/22 08:26:55;;;;;;;;;;;;;;;-1.05;72.48;93067.38;2071605;69;20047;-73
2023/01/22 08:29:21;;;;;;;;;;;;;;;-0.59;70.78;93068.84;2071757;69;20048;-75
2023/01/22 08:31:46;;;;;;;;;;;;;;;-0.78;71.03;93065.38;2071691;69;20171;-75
2023/01/22 08:34:11;;;;;;;;;;;;;;;-0.95;70.88;93070.47;2071794;69;20144;-73
2023/01/22 08:36:37;;;;;;;;;;;;;;;-0.75;70.97;93069.13;2071724;69;20498;-73
2023/01/22 08:39:02;;;;;;;;;;;;;;;-0.52;69.72;93067.47;2071483;69;20044;-76
2023/01/22 08:41:28;;;;;;;;;;;;;;;-0.29;69.63;93067.78;2071758;69;20052;-76
2023/01/22 08:43:53;;;;;;;;;;;;;;;-0.34;67.75;93069.38;2071603;69;20418;-73
2023/01/22 08:46:19;;;;;;;;;;;;;;;-0.32;67.94;93077.91;2071659;69;20119;-73
2023/01/22 08:48:45;;;;;;;;;;;;;;;-0.60;68.64;93081.16;2071583;69;20091;-75
2023/01/22 08:51:11;;;;;;;;;;;;;;;-0.18;68.36;93080.66;2071592;69;20067;-73
2023/01/22 08:53:36;;;;;;;;;;;;;;;-0.31;68.65;93076.63;2071523;69;20218;-77
2023/01/22 08:56:05;;;;;;;;;;;;;;;-0.34;68.20;93082.47;2071599;69;20147;-74
2023/01/22 08:58:30;;;;;;;;;;;;;;;0.13;67.81;93079.06;2071583;69;20193;-74
2023/01/22 09:00:56;;;;;;;;;;;;;;;0.19;66.55;93082.47;2071477;69;20547;-72
2023/01/22 09:03:21;;;;;;;;;;;;;;;0.50;66.42;93078.81;2071534;69;20045;-74
2023/01/22 09:05:47;;;;;;;;;;;;;;;0.29;66.19;93074.47;2068140;69;20122;-73
2023/01/22 09:08:13;;;;;;;;;;;;;;;0.06;67.65;93082.50;2071679;69;20037;-72
2023/01/22 09:10:38;;;;;;;;;;;;;;;0.50;66.01;93086.34;2071670;69;20040;-75
2023/01/22 09:13:04;;;;;;;;;;;;;;;0.64;65.38;93089.84;2071581;69;20541;-74
2023/01/22 09:15:30;;;;;;;;;;;;;;;0.97;65.48;93080.03;2071497;69;20423;-74
2023/01/22 09:17:55;;;;;;;;;;;;;;;0.74;65.23;93082.59;2071935;69;20420;-73
2023/01/22 09:20:21;;;;;;;;;;;;;;;0.95;64.94;93080.56;2072008;69;20549;-73
2023/01/22 09:22:47;;;;;;;;;;;;;;;0.91;63.21;93090.50;2072188;69;20056;-75
2023/01/22 09:25:13;;;;;;;;;;;;;;;1.17;64.09;93087.63;2071898;69;20437;-76
2023/01/22 09:27:39;;;;;;;;;;;;;;;1.17;63.74;93086.88;2071988;69;20132;-72
2023/01/22 09:30:04;;;;;;;;;;;;;;;0.80;64.91;93085.22;2071956;69;20109;-74
2023/01/22 09:32:30;;;;;;;;;;;;;;;1.02;65.07;93096.53;2071836;69;20041;-74
2023/01/22 09:34:55;;;;;;;;;;;;;;;1.18;64.20;93088.38;2071922;69;20167;-73
2023/01/22 09:37:21;;;;;;;;;;;;;;;1.15;63.93;93084.66;2068594;69;20424;-73
2023/01/22 09:39:48;;;;;;;;;;;;;;;0.63;63.89;93085.59;2071780;69;20084;-77
2023/01/22 09:42:19;;;;;;;;;;;;;;;0.75;64.61;93089.59;2072030;69;20056;-72
2023/01/22 09:44:47;;;;;;;;;;;;;;;0.36;64.64;93096.72;2071914;69;20070;-73
2023/01/22 09:47:15;;;;;;;;;;;;;;;0.25;64.74;93089.38;2071896;69;20489;-77
2023/01/22 09:49:51;;;;;;;;;;;;;;;0.23;65.48;93091.97;2071894;69;20106;-74
2023/01/22 09:52:17;;;;;;;;;;;;;;;0.83;64.67;93086.94;2072037;69;20064;-74
2023/01/22 09:54:42;;;;;;;;;;;;;;;0.78;66.31;93102.41;2071838;69;20106;-73
2023/01/22 09:57:12;;;;;;;;;;;;;;;0.61;65.67;93093.69;2071983;69;20052;-75
2023/01/22 09:59:44;;;;;;;;;;;;;;;0.77;64.11;93095.34;2071871;69;20052;-75
2023/01/22 10:02:15;;;;;;;;;;;;;;;0.65;65.56;93089.31;2071899;69;20560;-74
2023/01/22 10:04:43;;;;;;;;;;;;;;;0.41;67.39;93093.09;2072073;69;20048;-74
2023/01/22 10:07:11;;;;;;;;;;;;;;;-0.37;67.97;93086.31;2071881;69;20048;-73
2023/01/22 10:09:38;;;;;;;;;;;;;;;-0.16;67.86;93089.94;2071859;69;20124;-73
2023/01/22 10:12:10;;;;;;;;;;;;;;;0.98;66.33;93089.84;2072163;69;20048;-74
2023/01/22 10:14:36;;;;;;;;;;;;;;;0.90;65.10;93089.00;2071851;69;20526;-73
2023/01/22 10:17:02;;;;;;;;;;;;;;;0.97;65.52;93091.88;2071904;69;20049;-73
2023/01/22 10:19:34;;;;;;;;;;;;;;;0.63;63.88;93089.09;2072029;69;20076;-75
2023/01/22 10:22:03;;;;;;;;;;;;;;;1.33;63.48;93091.28;2071750;69;20048;-75
2023/01/22 10:24:29;;;;;;;;;;;;;;;1.21;63.75;93090.81;2071841;69;20052;-76
2023/01/22 10:26:57;;;;;;;;;;;;;;;1.22;61.42;93075.66;2071783;69;20049;-76
2023/01/22 10:29:24;;;;;;;;;;;;;;;1.63;61.04;93082.47;2071785;69;20049;-77
2023/01/22 10:32:00;;;;;;;;;;;;;;;2.87;59.15;93090.91;2071730;69;20040;-77
2023/01/22 10:34:31;;;;;;;;;;;;;;;2.72;58.25;93093.63;2067854;69;20053;-75
2023/01/22 10:37:11;;;;;;;;;;;;;;;2.93;58.10;93085.94;2068461;69;20584;-75
2023/01/22 10:39:38;;;;;;;;;;;;;;;2.79;56.75;93088.09;2068480;69;20448;-77
2023/01/22 10:42:03;;;;;;;;;;;;;;;2.73;56.97;93089.56;2068560;69;20130;-78
2023/01/22 10:44:29;;;;;;;;;;;;;;;3.56;54.91;93094.53;2067867;69;20056;-78
2023/01/22 10:47:05;;;;;;;;;;;;;;;2.96;55.16;93089.63;2065101;69;20126;-77
2023/01/22 10:49:32;;;;;;;;;;;;;;;2.62;55.30;93087.84;2068561;69;20055;-78
2023/01/22 10:51:59;;;;;;;;;;;;;;;2.80;57.46;93080.50;2068518;69;20049;-76
2023/01/22 10:54:38;;;;;;;;;;;;;;;2.71;56.38;93090.13;2068327;69;20045;-74
2023/01/22 10:57:09;;;;;;;;;;;;;;;2.87;56.51;93088.13;2067931;69;20073;-76
2023/01/22 10:59:35;;;;;;;;;;;;;;;2.78;56.85;93094.19;2068459;69;20432;-74
2023/01/22 11:02:09;;;;;;;;;;;;;;;2.33;57.72;93091.97;2068395;69;20055;-75
2023/01/22 11:04:35;;;;;;;;;;;;;;;2.44;58.25;93089.63;2068241;69;20069;-73
2023/01/22 11:07:05;;;;;;;;;;;;;;;2.20;56.88;93090.03;2068577;69;20091;-74
2023/01/22 11:09:48;;;;;;;;;;;;;;;1.49;58.01;93087.34;2068347;69;20052;-77
2023/01/22 11:12:23;;;;;;;;;;;;;;;1.85;57.91;93089.47;2068507;69;20053;-76
2023/01/22 11:14:56;;;;;;;;;;;;;;;2.07;58.11;93090.19;2068587;69;20056;-74
2023/01/22 11:17:26;;;;;;;;;;;;;;;2.42;58.48;93088.69;2068560;69;20118;-76
2023/01/22 11:19:57;;;;;;;;;;;;;;;2.25;56.66;93091.94;2068457;69;20047;-77
2023/01/22 11:22:32;;;;;;;;;;;;;;;2.52;57.64;93093.19;2068296;69;20436;-73
2023/01/22 11:24:57;;;;;;;;;;;;;;;2.11;56.85;93096.88;2068330;69;20083;-74
2023/01/22 11:27:29;;;;;;;;;;;;;;;1.77;58.16;93086.63;2068555;69;20077;-75
2023/01/22 11:30:00;;;;;;;;;;;;;;;2.19;57.26;93094.13;2068435;69;20049;-72
2023/01/22 11:32:44;;;;;;;;;;;;;;;2.16;58.01;93093.19;2068906;69;20043;-74
2023/01/22 11:35:29;;;;;;;;;;;;;;;2.83;56.94;93090.50;2068459;69;20047;-81
2023/01/22 11:37:54;;;;;;;;;;;;;;;3.01;55.82;93085.94;2072034;69;20040;-73
2023/01/22 11:40:28;;;;;;;;;;;;;;;3.47;55.21;93080.44;2068232;69;20055;-74
2023/01/22 11:42:56;;;;;;;;;;;;;;;3.80;59.15;93086.94;2071708;69;20561;-74
2023/01/22 11:45:38;;;;;;;;;;;;;;;3.43;54.67;93091.19;2071828;69;20052;-74
2023/01/22 11:48:06;;;;;;;;;;;;;;;3.30;56.45;93090.09;2071894;69;20122;-77
2023/01/22 11:50:45;;;;;;;;;;;;;;;2.54;55.60;93078.75;2071879;69;20044;-76
2023/01/22 11:53:29;;;;;;;;;;;;;;;2.68;56.15;93082.88;2071877;69;20051;-76
2023/01/22 11:56:03;;;;;;;;;;;;;;;3.44;54.79;93081.56;2071651;69;20051;-74
2023/01/22 11:58:44;;;;;;;;;;;;;;;2.78;56.18;93086.59;2071659;69;20040;-77
2023/01/22 12:01:28;;;;;;;;;;;;;;;3.44;55.35;93085.09;2071606;69;20045;-78
2023/01/22 12:03:54;;;;;;;;;;;;;;;3.22;54.69;93078.19;2071741;69;20048;-73
2023/01/22 12:06:25;;;;;;;;;;;;;;;2.91;55.19;93077.38;2071648;69;20053;-75
2023/01/22 12:08:57;;;;;;;;;;;;;;;3.27;55.22;93073.75;2068235;69;20143;-77
2023/01/22 12:11:29;;;;;;;;;;;;;;;2.22;58.78;93074.31;2071890;69;20053;-79
2023/01/22 12:14:00;;;;;;;;;;;;;;;3.97;55.49;93075.97;2071763;69;20090;-75
2023/01/22 12:16:46;;;;;;;;;;;;;;;3.79;54.09;93075.06;2071640;69;20055;-76
2023/01/22 12:19:25;;;;;;;;;;;;;;;3.49;52.98;93067.47;2071520;69;20473;-77
2023/01/22 12:21:53;;;;;;;;;;;;;;;3.70;52.98;93067.25;2071818;69;20080;-75
2023/01/22 12:24:28;;;;;;;;;;;;;;;3.03;53.13;93066.66;2071486;69;20131;-72
2023/01/22 12:27:15;;;;;;;;;;;;;;;2.72;54.82;93072.13;2068365;69;20045;-77
2023/01/22 12:29:43;;;;;;;;;;;;;;;3.70;53.79;93067.25;2071211;69;20045;-75
2023/01/22 12:32:12;;;;;;;;;;;;;;;3.37;53.08;93071.91;2071607;69;20044;-74
2023/01/22 12:34:56;;;;;;;;;;;;;;;2.68;56.30;93068.22;2071576;69;20502;-75
2023/01/22 12:37:25;;;;;;;;;;;;;;;3.15;55.18;93070.56;2071736;69;20041;-74
2023/01/22 12:40:06;;;;;;;;;;;;;;;2.74;55.98;93066.00;2071632;69;20051;-75
2023/01/22 12:42:36;;;;;;;;;;;;;;;3.16;55.25;93072.06;2071705;69;20123;-74
2023/01/22 12:45:02;;;;;;;;;;;;;;;2.44;54.94;93070.16;2071852;69;20111;-75
2023/01/22 12:47:31;;;;;;;;;;;;;;;3.24;53.98;93070.03;2071773;69;20150;-74
2023/01/22 12:49:56;;;;;;;;;;;;;;;3.15;54.08;93070.56;2068304;69;20059;-73
2023/01/22 12:52:30;;;;;;;;;;;;;;;2.41;54.05;93074.03;2072114;69;20084;-78
2023/01/22 12:54:56;;;;;;;;;;;;;;;2.07;54.45;93068.69;2071893;69;20065;-77
2023/01/22 12:57:23;;;;;;;;;;;;;;;2.68;53.71;93079.34;2072217;69;20482;-74
2023/01/22 12:59:52;;;;;;;;;;;;;;;2.68;53.86;93077.31;2071991;69;20110;-74
2023/01/22 13:02:28;;;;;;;;;;;;;;;2.57;54.36;93083.19;2072086;69;20417;-75